EDT,Max TemperatureF,Mean TemperatureF,Min TemperatureF,Max Dew PointF,MeanDew PointF,Min DewpointF,Max Humidity, Mean Humidity, Min Humidity, Max Sea Level PressureIn, Mean Sea Level PressureIn, Min Sea Level PressureIn, Max VisibilityMiles, Mean VisibilityMiles, Min VisibilityMiles, Max Wind SpeedMPH, Mean Wind SpeedMPH, Max Gust SpeedMPH,PrecipitationIn, CloudCover, Events, WindDirDegrees
2013-7-1,73,69,64,67,64,61,93,81,68,30.00,29.93,29.85,10,9,6,14,7,26,0.06,7,Rain,51
2013-7-2,82,73,63,67,64,62,93,78,62,30.07,30.01,29.95,10,8,2,10,4,14,T,7,Rain,123
2013-7-3,86,76,65,73,68,64,100,76,51,30.17,30.12,30.06,10,9,4,18,6,22,0.17,6,Rain-Thunderstorm,172
2013-7-4,80,74,67,70,67,65,93,78,62,30.22,30.17,30.14,10,9,6,15,5,18,0.03,8,Rain,183
2013-7-5,81,74,66,70,67,65,100,84,67,30.18,30.14,30.11,10,8,3,22,7,30,0.25,7,Fog-Rain,200
2013-7-6,85,77,68,71,69,67,97,79,61,30.19,30.12,30.05,10,10,9,14,4,20,T,6,Fog-Rain-Thunderstorm,201
2013-7-7,80,74,68,69,65,64,93,78,62,30.11,30.06,30.00,10,10,7,14,7,20,T,5,Rain-Thunderstorm,226
2013-7-8,84,74,63,70,65,61,93,74,55,30.13,30.08,30.04,10,9,5,15,5,18,0.11,6,Rain-Thunderstorm,217
2013-7-9,86,77,68,73,69,66,97,81,65,30.08,30.01,29.94,10,7,1,26,8,40,0.29,7,Rain-Thunderstorm,204
2013-7-10,84,75,65,75,68,63,100,87,74,30.00,29.91,29.81,10,6,0,36,9,61,3.96,8,Rain-Thunderstorm,208
2013-7-11,76,67,58,64,59,54,100,75,50,30.04,29.99,29.91,10,10,10,16,7,21,0.03,5,Rain,350
2013-7-12,79,67,55,64,59,54,100,74,48,30.14,30.08,30.04,10,10,9,14,5,20,0.00,4,,57
2013-7-13,82,71,59,66,62,57,93,74,54,30.23,30.18,30.13,10,10,10,12,6,14,0.00,3,,85
2013-7-14,87,76,65,72,67,64,93,74,55,30.28,30.26,30.23,10,10,6,12,6,16,0.00,3,,135
2013-7-15,90,79,67,74,70,66,100,78,56,30.34,30.29,30.25,10,10,8,12,3,14,T,4,,246
2013-7-16,89,80,70,76,73,70,100,82,63,30.34,30.29,30.25,10,9,6,17,2,24,T,4,Fog-Thunderstorm,294
2013-7-17,90,80,70,75,72,70,100,78,56,30.32,30.24,30.16,10,8,5,14,4,22,0.00,4,Fog-Thunderstorm,305
2013-7-18,91,81,71,75,73,69,94,75,56,30.18,30.11,30.02,10,9,5,14,4,17,0.00,3,,262
2013-7-19,91,82,72,72,70,67,93,73,52,30.02,29.93,29.83,10,10,8,22,11,29,T,3,,222
2013-7-20,79,73,66,70,66,64,100,86,71,29.96,29.88,29.82,10,8,2,23,7,32,1.35,7,Rain-Thunderstorm,233
2013-7-21,84,74,63,69,65,62,100,76,51,29.99,29.95,29.91,10,7,0,12,4,15,0.00,6,Fog,46
2013-7-22,77,70,62,70,65,61,100,90,79,29.96,29.86,29.78,10,8,2,9,3,12,0.41,7,Rain,88
2013-7-23,81,72,63,68,65,62,100,79,58,29.81,29.76,29.68,10,6,1,21,7,28,0.62,7,Fog-Rain-Thunderstorm,259
2013-7-24,69,61,53,59,52,49,86,71,56,30.04,29.93,29.79,10,10,10,20,9,22,0.00,5,,2
2013-7-25,74,62,49,54,50,47,93,67,41,30.11,30.08,30.04,10,10,10,14,6,20,0.00,1,,33
2013-7-26,78,64,50,58,54,50,100,71,41,30.11,30.06,29.99,10,10,10,12,3,14,T,2,,175
2013-7-27,72,65,58,66,62,56,93,83,73,29.98,29.90,29.83,10,8,2,13,6,17,0.17,7,Rain,173
2013-7-28,71,64,57,59,54,48,100,74,47,30.03,29.93,29.84,10,9,2,18,7,23,0.00,5,Fog,241
2013-7-29,71,62,53,56,52,49,93,70,47,30.20,30.11,30.03,10,10,10,16,6,22,T,5,Rain,244
2013-7-30,76,64,51,61,56,50,100,73,46,30.26,30.21,30.16,10,10,6,10,2,13,0.00,5,,328
2013-7-31,73,65,56,63,60,55,100,83,66,30.17,30.08,29.94,10,9,7,9,5,15,0.00,7,,140